sensor_id;sensor_type;location;lat;lon;timestamp;P1;durP1;ratioP1;P2;durP2;ratioP2
59649;SDS011;46162;57.568;25.814;2023-02-03T00:01:59;2.20;;;0.30;;
59649;SDS011;46162;57.568;25.814;2023-02-03T00:04:28;1.98;;;0.20;;
59649;SDS011;46162;57.568;25.814;2023-02-03T00:06:57;2.60;;;0.20;;
59649;SDS011;46162;57.568;25.814;2023-02-03T00:09:25;2.10;;;0.25;;
59649;SDS011;46162;57.568;25.814;2023-02-03T00:11:54;2.42;;;0.30;;
59649;SDS011;46162;57.568;25.814;2023-02-03T00:14:22;2.47;;;0.20;;
59649;SDS011;46162;57.568;25.814;2023-02-03T00:16:52;2.28;;;0.30;;
59649;SDS011;46162;57.568;25.814;2023-02-03T00:19:21;3.17;;;0.30;;
59649;SDS011;46162;57.568;25.814;2023-02-03T00:21:49;3.03;;;0.20;;
59649;SDS011;46162;57.568;25.814;2023-02-03T00:24:18;3.92;;;0.30;;
59649;SDS011;46162;57.568;25.814;2023-02-03T00:26:49;2.22;;;0.40;;
59649;SDS011;46162;57.568;25.814;2023-02-03T00:29:17;3.05;;;0.30;;
59649;SDS011;46162;57.568;25.814;2023-02-03T00:31:50;5.55;;;0.43;;
59649;SDS011;46162;57.568;25.814;2023-02-03T00:34:21;2.75;;;0.43;;
59649;SDS011;46162;57.568;25.814;2023-02-03T00:36:49;3.95;;;0.45;;
59649;SDS011;46162;57.568;25.814;2023-02-03T00:39:18;1.83;;;0.30;;
59649;SDS011;46162;57.568;25.814;2023-02-03T00:41:46;3.33;;;0.40;;
59649;SDS011;46162;57.568;25.814;2023-02-03T00:44:15;2.20;;;0.40;;
59649;SDS011;46162;57.568;25.814;2023-02-03T00:46:44;2.67;;;0.20;;
59649;SDS011;46162;57.568;25.814;2023-02-03T00:49:14;2.47;;;0.50;;
59649;SDS011;46162;57.568;25.814;2023-02-03T00:51:42;3.35;;;0.45;;
59649;SDS011;46162;57.568;25.814;2023-02-03T00:54:12;2.72;;;0.60;;
59649;SDS011;46162;57.568;25.814;2023-02-03T00:56:41;3.08;;;0.40;;
59649;SDS011;46162;57.568;25.814;2023-02-03T00:59:10;3.67;;;0.35;;
59649;SDS011;46162;57.568;25.814;2023-02-03T01:01:39;2.40;;;0.30;;
59649;SDS011;46162;57.568;25.814;2023-02-03T01:04:07;3.45;;;0.40;;
59649;SDS011;46162;57.568;25.814;2023-02-03T01:06:38;4.25;;;0.40;;
59649;SDS011;46162;57.568;25.814;2023-02-03T01:09:08;2.83;;;0.30;;
59649;SDS011;46162;57.568;25.814;2023-02-03T01:11:37;4.68;;;0.45;;
59649;SDS011;46162;57.568;25.814;2023-02-03T01:14:06;3.58;;;0.55;;
59649;SDS011;46162;57.568;25.814;2023-02-03T01:16:35;3.67;;;0.40;;
59649;SDS011;46162;57.568;25.814;2023-02-03T01:19:04;2.88;;;0.40;;
59649;SDS011;46162;57.568;25.814;2023-02-03T01:21:33;3.63;;;0.30;;
59649;SDS011;46162;57.568;25.814;2023-02-03T01:24:04;2.28;;;0.20;;
59649;SDS011;46162;57.568;25.814;2023-02-03T01:26:36;6.03;;;0.65;;
59649;SDS011;46162;57.568;25.814;2023-02-03T01:29:05;3.97;;;0.45;;
59649;SDS011;46162;57.568;25.814;2023-02-03T01:31:35;4.35;;;0.70;;
59649;SDS011;46162;57.568;25.814;2023-02-03T01:34:07;3.60;;;0.60;;
59649;SDS011;46162;57.568;25.814;2023-02-03T01:36:39;3.38;;;0.77;;
59649;SDS011;46162;57.568;25.814;2023-02-03T01:39:08;4.47;;;0.60;;
59649;SDS011;46162;57.568;25.814;2023-02-03T01:41:38;3.83;;;0.55;;
59649;SDS011;46162;57.568;25.814;2023-02-03T01:47:10;3.92;;;0.90;;
59649;SDS011;46162;57.568;25.814;2023-02-03T01:49:44;3.70;;;0.77;;
59649;SDS011;46162;57.568;25.814;2023-02-03T01:52:17;3.38;;;0.80;;
59649;SDS011;46162;57.568;25.814;2023-02-03T01:54:47;5.68;;;1.05;;
59649;SDS011;46162;57.568;25.814;2023-02-03T01:57:20;4.53;;;0.90;;
59649;SDS011;46162;57.568;25.814;2023-02-03T01:59:51;4.80;;;0.82;;
59649;SDS011;46162;57.568;25.814;2023-02-03T02:02:26;4.53;;;1.08;;
59649;SDS011;46162;57.568;25.814;2023-02-03T02:04:56;5.10;;;0.85;;
59649;SDS011;46162;57.568;25.814;2023-02-03T02:07:30;4.38;;;1.15;;
59649;SDS011;46162;57.568;25.814;2023-02-03T02:10:03;3.92;;;0.90;;
59649;SDS011;46162;57.568;25.814;2023-02-03T02:12:32;4.75;;;0.90;;
59649;SDS011;46162;57.568;25.814;2023-02-03T02:15:01;3.95;;;1.00;;
59649;SDS011;46162;57.568;25.814;2023-02-03T02:17:37;5.03;;;1.00;;
59649;SDS011;46162;57.568;25.814;2023-02-03T02:20:28;6.03;;;0.45;;
59649;SDS011;46162;57.568;25.814;2023-02-03T02:23:27;4.80;;;0.70;;
59649;SDS011;46162;57.568;25.814;2023-02-03T02:32:35;3.72;;;0.73;;
59649;SDS011;46162;57.568;25.814;2023-02-03T02:35:16;2.97;;;0.40;;
59649;SDS011;46162;57.568;25.814;2023-02-03T02:37:58;3.97;;;0.47;;
59649;SDS011;46162;57.568;25.814;2023-02-03T02:40:32;3.22;;;0.63;;
59649;SDS011;46162;57.568;25.814;2023-02-03T02:43:07;3.50;;;0.40;;
59649;SDS011;46162;57.568;25.814;2023-02-03T02:45:43;3.95;;;0.40;;
59649;SDS011;46162;57.568;25.814;2023-02-03T02:48:18;3.50;;;0.63;;
59649;SDS011;46162;57.568;25.814;2023-02-03T02:50:51;3.58;;;0.40;;
59649;SDS011;46162;57.568;25.814;2023-02-03T02:53:23;3.90;;;0.60;;
59649;SDS011;46162;57.568;25.814;2023-02-03T02:55:54;3.58;;;0.55;;
59649;SDS011;46162;57.568;25.814;2023-02-03T02:58:24;3.95;;;0.20;;
59649;SDS011;46162;57.568;25.814;2023-02-03T03:00:56;3.00;;;0.20;;
59649;SDS011;46162;57.568;25.814;2023-02-03T03:03:27;2.45;;;0.30;;
59649;SDS011;46162;57.568;25.814;2023-02-03T03:05:56;4.82;;;0.20;;
59649;SDS011;46162;57.568;25.814;2023-02-03T03:08:34;2.67;;;0.20;;
59649;SDS011;46162;57.568;25.814;2023-02-03T03:11:09;2.85;;;0.30;;
59649;SDS011;46162;57.568;25.814;2023-02-03T03:13:38;1.73;;;0.30;;
59649;SDS011;46162;57.568;25.814;2023-02-03T03:16:15;3.13;;;0.20;;
59649;SDS011;46162;57.568;25.814;2023-02-03T03:18:52;1.77;;;0.20;;
59649;SDS011;46162;57.568;25.814;2023-02-03T03:21:24;4.40;;;0.28;;
59649;SDS011;46162;57.568;25.814;2023-02-03T03:23:58;2.58;;;0.10;;
59649;SDS011;46162;57.568;25.814;2023-02-03T03:26:31;2.90;;;0.30;;
59649;SDS011;46162;57.568;25.814;2023-02-03T03:29:06;3.47;;;0.10;;
59649;SDS011;46162;57.568;25.814;2023-02-03T03:31:41;2.10;;;0.20;;
59649;SDS011;46162;57.568;25.814;2023-02-03T03:34:13;2.47;;;0.10;;
59649;SDS011;46162;57.568;25.814;2023-02-03T03:36:43;1.52;;;0.22;;
59649;SDS011;46162;57.568;25.814;2023-02-03T03:39:17;2.92;;;0.10;;
59649;SDS011;46162;57.568;25.814;2023-02-03T03:41:55;3.92;;;0.17;;
59649;SDS011;46162;57.568;25.814;2023-02-03T03:44:28;2.33;;;0.10;;
59649;SDS011;46162;57.568;25.814;2023-02-03T03:47:03;2.70;;;0.20;;
59649;SDS011;46162;57.568;25.814;2023-02-03T03:49:39;3.05;;;0.20;;
59649;SDS011;46162;57.568;25.814;2023-02-03T03:52:12;1.30;;;0.20;;
59649;SDS011;46162;57.568;25.814;2023-02-03T03:54:47;1.40;;;0.10;;
59649;SDS011;46162;57.568;25.814;2023-02-03T03:57:17;3.60;;;0.47;;
59649;SDS011;46162;57.568;25.814;2023-02-03T03:59:50;2.47;;;0.10;;
59649;SDS011;46162;57.568;25.814;2023-02-03T04:02:19;1.27;;;0.10;;
59649;SDS011;46162;57.568;25.814;2023-02-03T04:04:51;2.80;;;0.40;;
59649;SDS011;46162;57.568;25.814;2023-02-03T04:07:22;2.90;;;0.10;;
59649;SDS011;46162;57.568;25.814;2023-02-03T04:09:51;2.35;;;0.10;;
59649;SDS011;46162;57.568;25.814;2023-02-03T04:12:21;2.35;;;0.10;;
59649;SDS011;46162;57.568;25.814;2023-02-03T04:14:50;1.30;;;0.35;;
59649;SDS011;46162;57.568;25.814;2023-02-03T04:17:19;2.72;;;0.20;;
59649;SDS011;46162;57.568;25.814;2023-02-03T04:19:47;2.58;;;0.13;;
59649;SDS011;46162;57.568;25.814;2023-02-03T04:22:17;3.10;;;0.10;;
59649;SDS011;46162;57.568;25.814;2023-02-03T04:24:46;1.98;;;0.20;;
59649;SDS011;46162;57.568;25.814;2023-02-03T04:27:14;4.22;;;0.30;;
59649;SDS011;46162;57.568;25.814;2023-02-03T04:29:43;3.30;;;0.50;;
59649;SDS011;46162;57.568;25.814;2023-02-03T04:32:13;4.32;;;0.50;;
59649;SDS011;46162;57.568;25.814;2023-02-03T04:34:41;4.15;;;0.38;;
59649;SDS011;46162;57.568;25.814;2023-02-03T04:37:10;5.60;;;0.60;;
59649;SDS011;46162;57.568;25.814;2023-02-03T04:39:40;4.07;;;0.28;;
59649;SDS011;46162;57.568;25.814;2023-02-03T04:42:08;4.30;;;0.40;;
59649;SDS011;46162;57.568;25.814;2023-02-03T04:44:37;4.53;;;0.30;;
59649;SDS011;46162;57.568;25.814;2023-02-03T04:47:05;1.35;;;0.10;;
59649;SDS011;46162;57.568;25.814;2023-02-03T04:49:34;1.63;;;0.20;;
59649;SDS011;46162;57.568;25.814;2023-02-03T04:52:02;1.67;;;0.20;;
59649;SDS011;46162;57.568;25.814;2023-02-03T04:54:31;2.08;;;0.20;;
59649;SDS011;46162;57.568;25.814;2023-02-03T04:57:01;2.20;;;0.30;;
59649;SDS011;46162;57.568;25.814;2023-02-03T04:59:30;1.55;;;0.20;;
59649;SDS011;46162;57.568;25.814;2023-02-03T05:02:00;2.20;;;0.17;;
59649;SDS011;46162;57.568;25.814;2023-02-03T05:04:29;0.88;;;0.10;;
59649;SDS011;46162;57.568;25.814;2023-02-03T05:06:59;3.08;;;0.20;;
59649;SDS011;46162;57.568;25.814;2023-02-03T05:09:27;4.07;;;0.10;;
59649;SDS011;46162;57.568;25.814;2023-02-03T05:11:56;1.52;;;0.17;;
59649;SDS011;46162;57.568;25.814;2023-02-03T05:14:26;2.45;;;0.10;;
59649;SDS011;46162;57.568;25.814;2023-02-03T05:16:54;1.70;;;0.10;;
59649;SDS011;46162;57.568;25.814;2023-02-03T05:19:23;1.52;;;0.10;;
59649;SDS011;46162;57.568;25.814;2023-02-03T05:21:52;2.03;;;0.10;;
59649;SDS011;46162;57.568;25.814;2023-02-03T05:24:20;1.52;;;0.10;;
59649;SDS011;46162;57.568;25.814;2023-02-03T05:26:49;2.55;;;0.10;;
59649;SDS011;46162;57.568;25.814;2023-02-03T05:29:17;2.22;;;0.20;;
59649;SDS011;46162;57.568;25.814;2023-02-03T05:31:47;3.90;;;0.17;;
59649;SDS011;46162;57.568;25.814;2023-02-03T05:34:16;1.58;;;0.20;;
59649;SDS011;46162;57.568;25.814;2023-02-03T05:36:44;1.83;;;0.10;;
59649;SDS011;46162;57.568;25.814;2023-02-03T05:39:13;2.35;;;0.10;;
59649;SDS011;46162;57.568;25.814;2023-02-03T05:41:41;1.45;;;0.10;;
59649;SDS011;46162;57.568;25.814;2023-02-03T05:44:24;2.60;;;0.10;;
59649;SDS011;46162;57.568;25.814;2023-02-03T05:46:56;1.75;;;0.10;;
59649;SDS011;46162;57.568;25.814;2023-02-03T05:49:26;1.23;;;0.10;;
59649;SDS011;46162;57.568;25.814;2023-02-03T05:51:54;2.30;;;0.20;;
59649;SDS011;46162;57.568;25.814;2023-02-03T05:54:23;2.22;;;0.20;;
59649;SDS011;46162;57.568;25.814;2023-02-03T05:56:52;1.88;;;0.17;;
59649;SDS011;46162;57.568;25.814;2023-02-03T05:59:20;2.38;;;0.15;;
59649;SDS011;46162;57.568;25.814;2023-02-03T06:01:49;1.40;;;0.10;;
59649;SDS011;46162;57.568;25.814;2023-02-03T06:04:19;3.30;;;0.20;;
59649;SDS011;46162;57.568;25.814;2023-02-03T06:06:47;2.33;;;0.15;;
59649;SDS011;46162;57.568;25.814;2023-02-03T06:09:15;3.35;;;0.20;;
59649;SDS011;46162;57.568;25.814;2023-02-03T06:11:44;1.80;;;0.10;;
59649;SDS011;46162;57.568;25.814;2023-02-03T06:14:12;0.95;;;0.10;;
59649;SDS011;46162;57.568;25.814;2023-02-03T06:16:41;2.20;;;0.10;;
59649;SDS011;46162;57.568;25.814;2023-02-03T06:19:10;1.85;;;0.10;;
59649;SDS011;46162;57.568;25.814;2023-02-03T06:21:43;2.25;;;0.10;;
59649;SDS011;46162;57.568;25.814;2023-02-03T06:24:11;4.20;;;0.20;;
59649;SDS011;46162;57.568;25.814;2023-02-03T06:26:40;1.55;;;0.20;;
59649;SDS011;46162;57.568;25.814;2023-02-03T06:29:09;1.95;;;0.30;;
59649;SDS011;46162;57.568;25.814;2023-02-03T06:31:37;3.53;;;0.30;;
59649;SDS011;46162;57.568;25.814;2023-02-03T06:34:06;2.78;;;0.20;;
59649;SDS011;46162;57.568;25.814;2023-02-03T06:36:35;1.90;;;0.10;;
59649;SDS011;46162;57.568;25.814;2023-02-03T06:39:05;1.40;;;0.20;;
59649;SDS011;46162;57.568;25.814;2023-02-03T06:41:34;1.92;;;0.10;;
59649;SDS011;46162;57.568;25.814;2023-02-03T06:44:02;1.10;;;0.10;;
59649;SDS011;46162;57.568;25.814;2023-02-03T06:46:31;2.05;;;0.10;;
59649;SDS011;46162;57.568;25.814;2023-02-03T06:49:00;3.67;;;0.17;;
59649;SDS011;46162;57.568;25.814;2023-02-03T06:51:28;1.80;;;0.20;;
59649;SDS011;46162;57.568;25.814;2023-02-03T06:53:57;1.08;;;0.10;;
59649;SDS011;46162;57.568;25.814;2023-02-03T06:56:27;1.05;;;0.10;;
59649;SDS011;46162;57.568;25.814;2023-02-03T06:58:55;1.70;;;0.10;;
59649;SDS011;46162;57.568;25.814;2023-02-03T07:01:24;4.35;;;0.20;;
59649;SDS011;46162;57.568;25.814;2023-02-03T07:03:53;1.40;;;0.10;;
59649;SDS011;46162;57.568;25.814;2023-02-03T07:06:23;2.45;;;0.17;;
59649;SDS011;46162;57.568;25.814;2023-02-03T07:08:54;2.08;;;0.40;;
59649;SDS011;46162;57.568;25.814;2023-02-03T07:11:27;2.53;;;0.63;;
59649;SDS011;46162;57.568;25.814;2023-02-03T07:13:56;1.90;;;0.10;;
59649;SDS011;46162;57.568;25.814;2023-02-03T07:16:25;3.03;;;0.28;;
59649;SDS011;46162;57.568;25.814;2023-02-03T07:18:54;1.23;;;0.13;;
59649;SDS011;46162;57.568;25.814;2023-02-03T07:21:22;5.20;;;0.10;;
59649;SDS011;46162;57.568;25.814;2023-02-03T07:23:51;2.53;;;0.20;;
59649;SDS011;46162;57.568;25.814;2023-02-03T07:26:19;2.60;;;0.30;;
59649;SDS011;46162;57.568;25.814;2023-02-03T07:28:50;3.92;;;0.40;;
59649;SDS011;46162;57.568;25.814;2023-02-03T07:31:20;3.00;;;0.10;;
59649;SDS011;46162;57.568;25.814;2023-02-03T07:33:49;1.80;;;0.20;;
59649;SDS011;46162;57.568;25.814;2023-02-03T07:36:17;2.25;;;0.10;;
59649;SDS011;46162;57.568;25.814;2023-02-03T07:38:46;2.67;;;0.20;;
59649;SDS011;46162;57.568;25.814;2023-02-03T07:41:14;4.63;;;0.25;;
59649;SDS011;46162;57.568;25.814;2023-02-03T07:43:43;3.95;;;0.20;;
59649;SDS011;46162;57.568;25.814;2023-02-03T07:46:13;2.60;;;0.10;;
59649;SDS011;46162;57.568;25.814;2023-02-03T07:48:42;1.63;;;0.10;;
59649;SDS011;46162;57.568;25.814;2023-02-03T07:51:10;2.55;;;0.10;;
59649;SDS011;46162;57.568;25.814;2023-02-03T07:53:39;2.97;;;0.20;;
59649;SDS011;46162;57.568;25.814;2023-02-03T07:56:07;2.20;;;0.10;;
59649;SDS011;46162;57.568;25.814;2023-02-03T07:58:37;2.65;;;0.13;;
59649;SDS011;46162;57.568;25.814;2023-02-03T08:01:10;3.05;;;0.40;;
59649;SDS011;46162;57.568;25.814;2023-02-03T08:03:40;6.15;;;1.83;;
59649;SDS011;46162;57.568;25.814;2023-02-03T08:06:10;3.80;;;1.05;;
59649;SDS011;46162;57.568;25.814;2023-02-03T08:08:38;9.95;;;2.70;;
59649;SDS011;46162;57.568;25.814;2023-02-03T08:11:07;9.68;;;2.75;;
59649;SDS011;46162;57.568;25.814;2023-02-03T08:13:36;5.70;;;2.25;;
59649;SDS011;46162;57.568;25.814;2023-02-03T08:16:05;4.45;;;1.20;;
59649;SDS011;46162;57.568;25.814;2023-02-03T08:18:34;3.30;;;0.40;;
59649;SDS011;46162;57.568;25.814;2023-02-03T08:21:04;4.72;;;0.90;;
59649;SDS011;46162;57.568;25.814;2023-02-03T08:23:33;5.93;;;1.13;;
59649;SDS011;46162;57.568;25.814;2023-02-03T08:26:02;5.53;;;1.55;;
59649;SDS011;46162;57.568;25.814;2023-02-03T08:28:30;8.65;;;2.50;;
59649;SDS011;46162;57.568;25.814;2023-02-03T08:30:59;9.25;;;3.17;;
59649;SDS011;46162;57.568;25.814;2023-02-03T08:33:28;9.15;;;2.40;;
59649;SDS011;46162;57.568;25.814;2023-02-03T08:35:56;8.57;;;2.03;;
59649;SDS011;46162;57.568;25.814;2023-02-03T08:38:43;7.03;;;1.92;;
59649;SDS011;46162;57.568;25.814;2023-02-03T08:41:13;7.65;;;2.72;;
59649;SDS011;46162;57.568;25.814;2023-02-03T08:43:43;7.28;;;2.28;;
59649;SDS011;46162;57.568;25.814;2023-02-03T08:46:12;10.73;;;2.15;;
59649;SDS011;46162;57.568;25.814;2023-02-03T08:48:41;6.38;;;2.20;;
59649;SDS011;46162;57.568;25.814;2023-02-03T08:51:10;9.10;;;2.53;;
59649;SDS011;46162;57.568;25.814;2023-02-03T08:53:40;5.38;;;1.70;;
59649;SDS011;46162;57.568;25.814;2023-02-03T08:56:11;6.63;;;1.60;;
59649;SDS011;46162;57.568;25.814;2023-02-03T08:58:40;6.78;;;1.45;;
59649;SDS011;46162;57.568;25.814;2023-02-03T09:01:09;6.30;;;1.63;;
59649;SDS011;46162;57.568;25.814;2023-02-03T09:03:39;9.10;;;2.05;;
59649;SDS011;46162;57.568;25.814;2023-02-03T09:06:08;5.88;;;1.77;;
59649;SDS011;46162;57.568;25.814;2023-02-03T09:08:39;5.13;;;1.70;;
59649;SDS011;46162;57.568;25.814;2023-02-03T09:11:07;8.00;;;2.33;;
59649;SDS011;46162;57.568;25.814;2023-02-03T09:13:38;4.57;;;1.48;;
59649;SDS011;46162;57.568;25.814;2023-02-03T09:16:11;6.22;;;1.20;;
59649;SDS011;46162;57.568;25.814;2023-02-03T09:18:43;6.22;;;1.83;;
59649;SDS011;46162;57.568;25.814;2023-02-03T09:21:12;9.07;;;1.23;;
59649;SDS011;46162;57.568;25.814;2023-02-03T09:23:59;4.50;;;1.23;;
59649;SDS011;46162;57.568;25.814;2023-02-03T09:26:28;5.65;;;1.20;;
59649;SDS011;46162;57.568;25.814;2023-02-03T09:28:58;3.63;;;0.93;;
59649;SDS011;46162;57.568;25.814;2023-02-03T09:31:27;5.43;;;1.00;;
59649;SDS011;46162;57.568;25.814;2023-02-03T09:33:57;6.32;;;1.20;;
59649;SDS011;46162;57.568;25.814;2023-02-03T09:36:26;6.63;;;1.38;;
59649;SDS011;46162;57.568;25.814;2023-02-03T09:38:55;4.88;;;1.30;;
59649;SDS011;46162;57.568;25.814;2023-02-03T09:41:27;11.43;;;1.63;;
59649;SDS011;46162;57.568;25.814;2023-02-03T09:44:12;4.63;;;1.15;;
59649;SDS011;46162;57.568;25.814;2023-02-03T09:46:48;5.35;;;1.25;;
59649;SDS011;46162;57.568;25.814;2023-02-03T09:49:21;5.00;;;1.45;;
59649;SDS011;46162;57.568;25.814;2023-02-03T09:51:54;6.35;;;1.52;;
59649;SDS011;46162;57.568;25.814;2023-02-03T09:54:31;5.43;;;1.38;;
59649;SDS011;46162;57.568;25.814;2023-02-03T09:57:05;4.88;;;1.20;;
59649;SDS011;46162;57.568;25.814;2023-02-03T09:59:45;5.07;;;1.20;;
59649;SDS011;46162;57.568;25.814;2023-02-03T10:02:32;5.38;;;1.60;;
59649;SDS011;46162;57.568;25.814;2023-02-03T10:05:14;7.20;;;1.52;;
59649;SDS011;46162;57.568;25.814;2023-02-03T10:07:50;8.13;;;1.40;;
59649;SDS011;46162;57.568;25.814;2023-02-03T10:10:29;6.15;;;1.63;;
59649;SDS011;46162;57.568;25.814;2023-02-03T10:13:09;6.13;;;1.70;;
59649;SDS011;46162;57.568;25.814;2023-02-03T10:15:58;8.90;;;2.25;;
59649;SDS011;46162;57.568;25.814;2023-02-03T10:18:39;9.60;;;1.77;;
59649;SDS011;46162;57.568;25.814;2023-02-03T10:21:12;6.93;;;2.38;;
59649;SDS011;46162;57.568;25.814;2023-02-03T10:23:46;12.10;;;4.20;;
59649;SDS011;46162;57.568;25.814;2023-02-03T10:26:17;19.92;;;6.20;;
59649;SDS011;46162;57.568;25.814;2023-02-03T10:28:51;43.30;;;17.02;;
59649;SDS011;46162;57.568;25.814;2023-02-03T10:31:24;10.63;;;3.80;;
59649;SDS011;46162;57.568;25.814;2023-02-03T10:33:57;2.92;;;0.63;;
59649;SDS011;46162;57.568;25.814;2023-02-03T10:36:31;4.22;;;0.75;;
59649;SDS011;46162;57.568;25.814;2023-02-03T10:39:11;2.97;;;0.73;;
59649;SDS011;46162;57.568;25.814;2023-02-03T10:41:46;3.03;;;0.47;;
59649;SDS011;46162;57.568;25.814;2023-02-03T10:44:15;4.00;;;0.85;;
59649;SDS011;46162;57.568;25.814;2023-02-03T10:46:45;4.10;;;0.60;;
59649;SDS011;46162;57.568;25.814;2023-02-03T10:49:13;4.10;;;0.68;;
59649;SDS011;46162;57.568;25.814;2023-02-03T10:51:43;3.65;;;0.50;;
59649;SDS011;46162;57.568;25.814;2023-02-03T10:54:25;2.92;;;0.55;;
59649;SDS011;46162;57.568;25.814;2023-02-03T10:57:01;3.55;;;0.52;;
59649;SDS011;46162;57.568;25.814;2023-02-03T10:59:32;2.10;;;0.50;;
59649;SDS011;46162;57.568;25.814;2023-02-03T11:02:09;2.95;;;0.20;;
59649;SDS011;46162;57.568;25.814;2023-02-03T11:04:48;2.45;;;0.30;;
59649;SDS011;46162;57.568;25.814;2023-02-03T11:07:36;3.90;;;0.55;;
59649;SDS011;46162;57.568;25.814;2023-02-03T11:13:17;3.97;;;0.57;;
59649;SDS011;46162;57.568;25.814;2023-02-03T11:15:51;2.30;;;0.38;;
59649;SDS011;46162;57.568;25.814;2023-02-03T11:18:30;2.80;;;0.20;;
59649;SDS011;46162;57.568;25.814;2023-02-03T11:21:08;3.00;;;0.22;;
59649;SDS011;46162;57.568;25.814;2023-02-03T11:23:43;2.22;;;0.32;;
59649;SDS011;46162;57.568;25.814;2023-02-03T11:26:17;1.50;;;0.20;;
59649;SDS011;46162;57.568;25.814;2023-02-03T11:28:48;4.80;;;0.50;;
59649;SDS011;46162;57.568;25.814;2023-02-03T11:31:22;4.43;;;0.28;;
59649;SDS011;46162;57.568;25.814;2023-02-03T11:33:57;1.60;;;0.30;;
59649;SDS011;46162;57.568;25.814;2023-02-03T11:36:28;2.33;;;0.20;;
59649;SDS011;46162;57.568;25.814;2023-02-03T11:41:55;3.03;;;0.20;;
59649;SDS011;46162;57.568;25.814;2023-02-03T11:44:24;1.83;;;0.30;;
59649;SDS011;46162;57.568;25.814;2023-02-03T11:46:57;2.45;;;0.20;;
59649;SDS011;46162;57.568;25.814;2023-02-03T11:49:53;4.03;;;0.30;;
59649;SDS011;46162;57.568;25.814;2023-02-03T11:52:46;2.30;;;0.30;;
59649;SDS011;46162;57.568;25.814;2023-02-03T11:55:24;2.38;;;0.32;;
59649;SDS011;46162;57.568;25.814;2023-02-03T11:58:05;3.60;;;0.30;;
59649;SDS011;46162;57.568;25.814;2023-02-03T12:00:53;3.58;;;0.50;;
59649;SDS011;46162;57.568;25.814;2023-02-03T12:03:37;1.80;;;0.20;;
59649;SDS011;46162;57.568;25.814;2023-02-03T12:06:23;3.55;;;0.40;;
59649;SDS011;46162;57.568;25.814;2023-02-03T12:09:09;2.40;;;0.43;;
59649;SDS011;46162;57.568;25.814;2023-02-03T12:11:56;2.15;;;0.20;;
59649;SDS011;46162;57.568;25.814;2023-02-03T12:14:45;2.58;;;0.35;;
59649;SDS011;46162;57.568;25.814;2023-02-03T12:17:32;3.33;;;0.40;;
59649;SDS011;46162;57.568;25.814;2023-02-03T12:20:21;3.15;;;0.50;;
59649;SDS011;46162;57.568;25.814;2023-02-03T12:23:02;3.45;;;0.55;;
59649;SDS011;46162;57.568;25.814;2023-02-03T12:25:46;5.18;;;0.50;;
59649;SDS011;46162;57.568;25.814;2023-02-03T12:28:30;4.35;;;1.13;;
59649;SDS011;46162;57.568;25.814;2023-02-03T12:31:11;9.25;;;1.27;;
59649;SDS011;46162;57.568;25.814;2023-02-03T12:33:46;4.32;;;1.02;;
59649;SDS011;46162;57.568;25.814;2023-02-03T12:36:19;4.35;;;0.63;;
59649;SDS011;46162;57.568;25.814;2023-02-03T12:38:53;2.95;;;0.50;;
59649;SDS011;46162;57.568;25.814;2023-02-03T12:41:29;3.47;;;0.40;;
59649;SDS011;46162;57.568;25.814;2023-02-03T12:44:03;2.95;;;0.52;;
59649;SDS011;46162;57.568;25.814;2023-02-03T12:46:36;2.60;;;0.38;;
59649;SDS011;46162;57.568;25.814;2023-02-03T12:49:12;2.88;;;0.40;;
59649;SDS011;46162;57.568;25.814;2023-02-03T12:51:58;3.83;;;0.60;;
59649;SDS011;46162;57.568;25.814;2023-02-03T12:54:34;2.85;;;0.32;;
59649;SDS011;46162;57.568;25.814;2023-02-03T12:57:14;3.08;;;0.40;;
59649;SDS011;46162;57.568;25.814;2023-02-03T12:59:51;2.90;;;0.40;;
59649;SDS011;46162;57.568;25.814;2023-02-03T13:02:29;2.22;;;0.40;;
59649;SDS011;46162;57.568;25.814;2023-02-03T13:05:04;3.28;;;0.40;;
59649;SDS011;46162;57.568;25.814;2023-02-03T13:07:45;2.85;;;0.40;;
59649;SDS011;46162;57.568;25.814;2023-02-03T13:10:22;2.25;;;0.38;;
59649;SDS011;46162;57.568;25.814;2023-02-03T13:12:56;2.85;;;0.45;;
59649;SDS011;46162;57.568;25.814;2023-02-03T13:15:26;2.50;;;0.40;;
59649;SDS011;46162;57.568;25.814;2023-02-03T13:18:00;3.40;;;0.40;;
59649;SDS011;46162;57.568;25.814;2023-02-03T13:20:33;3.35;;;0.40;;
59649;SDS011;46162;57.568;25.814;2023-02-03T13:23:03;3.33;;;0.30;;
59649;SDS011;46162;57.568;25.814;2023-02-03T13:25:47;2.95;;;0.63;;
59649;SDS011;46162;57.568;25.814;2023-02-03T13:28:46;3.72;;;0.50;;
59649;SDS011;46162;57.568;25.814;2023-02-03T13:31:30;4.10;;;0.45;;
59649;SDS011;46162;57.568;25.814;2023-02-03T13:34:13;3.47;;;0.80;;
59649;SDS011;46162;57.568;25.814;2023-02-03T13:40:00;3.70;;;0.70;;
59649;SDS011;46162;57.568;25.814;2023-02-03T13:42:41;2.60;;;0.52;;
59649;SDS011;46162;57.568;25.814;2023-02-03T13:45:14;4.05;;;0.65;;
59649;SDS011;46162;57.568;25.814;2023-02-03T13:47:51;3.83;;;0.80;;
59649;SDS011;46162;57.568;25.814;2023-02-03T13:50:22;4.93;;;0.77;;
59649;SDS011;46162;57.568;25.814;2023-02-03T13:52:55;3.47;;;0.60;;
59649;SDS011;46162;57.568;25.814;2023-02-03T13:55:28;4.82;;;0.40;;
59649;SDS011;46162;57.568;25.814;2023-02-03T13:58:03;4.07;;;0.80;;
59649;SDS011;46162;57.568;25.814;2023-02-03T14:09:46;3.58;;;0.70;;
59649;SDS011;46162;57.568;25.814;2023-02-03T14:12:19;5.60;;;1.27;;
59649;SDS011;46162;57.568;25.814;2023-02-03T14:15:00;6.47;;;1.52;;
59649;SDS011;46162;57.568;25.814;2023-02-03T14:20:52;6.80;;;2.25;;
59649;SDS011;46162;57.568;25.814;2023-02-03T14:23:26;5.47;;;1.70;;
59649;SDS011;46162;57.568;25.814;2023-02-03T14:26:01;5.55;;;1.48;;
59649;SDS011;46162;57.568;25.814;2023-02-03T14:28:36;5.13;;;1.52;;
59649;SDS011;46162;57.568;25.814;2023-02-03T14:31:13;6.55;;;1.48;;
59649;SDS011;46162;57.568;25.814;2023-02-03T14:36:39;6.50;;;1.70;;
59649;SDS011;46162;57.568;25.814;2023-02-03T14:42:55;4.82;;;1.67;;
59649;SDS011;46162;57.568;25.814;2023-02-03T14:46:05;5.15;;;1.50;;
59649;SDS011;46162;57.568;25.814;2023-02-03T14:54:45;6.03;;;1.70;;
59649;SDS011;46162;57.568;25.814;2023-02-03T14:57:27;3.25;;;0.82;;
59649;SDS011;46162;57.568;25.814;2023-02-03T15:00:04;4.72;;;1.35;;
59649;SDS011;46162;57.568;25.814;2023-02-03T15:05:52;4.60;;;1.00;;
59649;SDS011;46162;57.568;25.814;2023-02-03T15:08:39;4.50;;;1.17;;
59649;SDS011;46162;57.568;25.814;2023-02-03T15:11:23;3.70;;;0.88;;
59649;SDS011;46162;57.568;25.814;2023-02-03T15:13:54;4.40;;;0.60;;
59649;SDS011;46162;57.568;25.814;2023-02-03T15:16:24;1.97;;;0.30;;
59649;SDS011;46162;57.568;25.814;2023-02-03T15:18:58;3.40;;;0.30;;
59649;SDS011;46162;57.568;25.814;2023-02-03T15:21:33;2.83;;;0.30;;
59649;SDS011;46162;57.568;25.814;2023-02-03T15:24:11;3.13;;;0.40;;
59649;SDS011;46162;57.568;25.814;2023-02-03T15:26:44;3.05;;;0.50;;
59649;SDS011;46162;57.568;25.814;2023-02-03T15:29:27;3.63;;;0.73;;
59649;SDS011;46162;57.568;25.814;2023-02-03T15:32:05;3.58;;;0.40;;
59649;SDS011;46162;57.568;25.814;2023-02-03T15:34:42;3.60;;;0.73;;
59649;SDS011;46162;57.568;25.814;2023-02-03T15:37:16;3.03;;;0.82;;
59649;SDS011;46162;57.568;25.814;2023-02-03T15:39:55;3.78;;;0.88;;
59649;SDS011;46162;57.568;25.814;2023-02-03T15:42:29;2.88;;;0.55;;
59649;SDS011;46162;57.568;25.814;2023-02-03T15:45:05;2.40;;;0.40;;
59649;SDS011;46162;57.568;25.814;2023-02-03T15:47:45;2.47;;;0.45;;
59649;SDS011;46162;57.568;25.814;2023-02-03T15:50:23;2.15;;;0.30;;
59649;SDS011;46162;57.568;25.814;2023-02-03T15:52:58;2.35;;;0.40;;
59649;SDS011;46162;57.568;25.814;2023-02-03T15:55:34;3.13;;;0.65;;